MM-0005 weather

Shinbweyang Airport
Shinbweyang, Kachin State, Burma

Public forecast

Using degrees Celsius for public forecast. Weather courtesy of forecast.io.

Closest aviation weather report (METAR) to Shinbweyang Airport

Closest report is Dibrugarh Airport, 79.8 nm (147.8 km) NW. Retrieved 2020/02/22 01:00 UTC (17 minutes ago):

VEMN 220100Z 00000KT 1500 BR FEW100 15/13 Q1021 NOSIG

Closest aviation forecast (TAF) to Shinbweyang Airport

Forecast is more than 12 hours old.

Closest forecast is Jorhat Airport, 109.2 nm (202.2 km) W. Retrieved 2020/02/21 12:30 UTC (13 hours ago):

TAF VEJT 210930Z 2112/2124 02005KT 6000 SCT250 BECMG 2113/2114 VRB02KT 5000 BR FEW100 SCT250 BECMG 2115/2116 3000 BR BECMG 2122/2123 1500 BR SCT090 SCT250